Terminal Aerodrome Forecast
Issued by NWS

Home | Current Version | Previous Version | Text Only | Print | Product List | Glossary On
Versions: 1 2 3 4 5 6 7 8 9 10 11 12
079
FTUS45 KTFX 230013 RRA
TAFHVR
TAF
KHVR 230013Z 2300/2324 29014KT P6SM SCT080 SCT200
     FM230200 26007KT P6SM SCT080
     FM231700 27012KT P6SM SCT120=

USA.gov is the U.S. government's official web portal to all federal, state and local government web resources and services.